createdAt,value
2023-03-08T00:01:28.063Z,5.57
2023-03-08T00:03:58.892Z,5.95
2023-03-08T00:06:28.603Z,3.97
2023-03-08T00:08:59.363Z,5.78
2023-03-08T00:11:29.744Z,4.82
2023-03-08T00:13:58.973Z,6.50
2023-03-08T00:16:27.743Z,5.40
2023-03-08T00:18:56.587Z,6.03
2023-03-08T00:21:25.533Z,5.95
2023-03-08T00:23:55.040Z,6.57
2023-03-08T00:26:24.090Z,5.55
2023-03-08T00:28:53.772Z,6.38
2023-03-08T00:31:25.345Z,7.85
2023-03-08T00:33:56.317Z,7.65
2023-03-08T00:36:25.514Z,9.07
2023-03-08T00:38:54.672Z,8.63
2023-03-08T00:41:24.098Z,7.90
2023-03-08T00:43:52.759Z,8.20
2023-03-08T00:46:21.554Z,7.70
2023-03-08T00:48:50.216Z,8.27
2023-03-08T00:51:20.946Z,8.88
2023-03-08T00:53:49.826Z,9.07
2023-03-08T00:56:18.853Z,10.20
2023-03-08T00:58:47.542Z,7.97
2023-03-08T01:01:20.525Z,9.13
2023-03-08T01:06:19.693Z,8.82
2023-03-08T01:08:48.183Z,9.48
2023-03-08T01:11:27.938Z,14.15
2023-03-08T01:13:59.474Z,20.17
2023-03-08T01:16:31.556Z,15.60
2023-03-08T01:19:01.920Z,10.23
2023-03-08T01:21:32.189Z,11.32
2023-03-08T01:24:01.266Z,11.15
2023-03-08T01:26:30.147Z,10.02
2023-03-08T01:28:59.066Z,12.02
2023-03-08T01:31:32.158Z,31.63
2023-03-08T01:34:01.659Z,10.50
2023-03-08T01:36:33.457Z,9.48
2023-03-08T01:39:02.617Z,23.58
2023-03-08T01:41:33.367Z,10.55
2023-03-08T01:44:02.731Z,10.30
2023-03-08T01:46:38.387Z,13.02
2023-03-08T01:49:20.250Z,15.10
2023-03-08T01:52:10.038Z,17.50
2023-03-08T01:54:44.640Z,10.88
2023-03-08T01:57:16.948Z,9.68
2023-03-08T01:59:49.804Z,9.55
2023-03-08T02:02:23.404Z,9.95
2023-03-08T02:04:52.416Z,10.15
2023-03-08T02:07:21.661Z,12.88
2023-03-08T02:09:51.733Z,9.35
2023-03-08T02:12:23.683Z,9.48
2023-03-08T02:14:52.370Z,8.30
2023-03-08T02:17:24.043Z,10.30
2023-03-08T02:20:11.466Z,14.52
2023-03-08T02:22:41.645Z,9.30
2023-03-08T02:25:17.415Z,9.60
2023-03-08T02:27:46.831Z,8.98
2023-03-08T02:30:18.396Z,14.30
2023-03-08T02:32:47.303Z,11.57
2023-03-08T02:35:16.437Z,14.80
2023-03-08T02:37:45.898Z,9.13
2023-03-08T02:40:15.414Z,13.40
2023-03-08T02:42:44.136Z,9.73
2023-03-08T02:45:13.166Z,12.85
2023-03-08T02:47:43.115Z,10.80
2023-03-08T02:50:12.224Z,13.23
2023-03-08T02:52:40.901Z,9.48
2023-03-08T02:55:10.156Z,10.65
2023-03-08T02:57:39.037Z,8.98
2023-03-08T03:00:09.208Z,10.60
2023-03-08T03:02:38.256Z,19.20
2023-03-08T03:05:11.792Z,12.80
2023-03-08T03:07:44.143Z,9.32
2023-03-08T03:10:20.042Z,8.63
2023-03-08T03:12:48.790Z,15.40
2023-03-08T03:15:21.169Z,7.85
2023-03-08T03:17:54.346Z,9.10
2023-03-08T03:20:23.308Z,13.80
2023-03-08T03:22:52.035Z,10.05
2023-03-08T03:25:25.377Z,9.40
2023-03-08T03:27:56.067Z,9.07
2023-03-08T03:30:27.921Z,8.00
2023-03-08T03:32:57.641Z,10.85
2023-03-08T03:35:31.338Z,8.55
2023-03-08T03:38:00.646Z,17.50
2023-03-08T03:40:29.776Z,7.47
2023-03-08T03:43:05.386Z,9.90
2023-03-08T03:45:34.325Z,31.15
2023-03-08T03:48:03.462Z,10.60
2023-03-08T03:50:32.783Z,10.00
2023-03-08T03:53:10.284Z,8.68
2023-03-08T03:55:40.192Z,10.82
2023-03-08T03:58:09.370Z,9.77
2023-03-08T04:00:38.544Z,11.05
2023-03-08T04:03:17.746Z,9.75
2023-03-08T04:05:46.799Z,8.63
2023-03-08T04:08:15.815Z,8.10
2023-03-08T04:10:44.635Z,6.78
2023-03-08T04:13:13.696Z,6.25
2023-03-08T04:15:44.030Z,7.47
2023-03-08T04:18:14.700Z,8.45
2023-03-08T04:20:47.396Z,9.63
2023-03-08T04:23:17.314Z,8.00
2023-03-08T04:25:48.853Z,8.55
2023-03-08T04:28:18.373Z,9.40
2023-03-08T04:30:50.036Z,8.85
2023-03-08T04:33:19.777Z,7.80
2023-03-08T04:35:51.074Z,11.40
2023-03-08T04:38:22.663Z,9.80
2023-03-08T04:41:03.273Z,9.20
2023-03-08T04:43:38.732Z,8.70
2023-03-08T04:46:09.181Z,7.40
2023-03-08T04:48:39.993Z,6.78
2023-03-08T04:51:11.593Z,5.82
2023-03-08T04:53:42.435Z,7.63
2023-03-08T04:56:12.479Z,8.70
2023-03-08T04:58:41.569Z,9.90
2023-03-08T05:01:22.993Z,8.50
2023-03-08T05:03:54.212Z,7.05
2023-03-08T05:06:29.746Z,6.95
2023-03-08T05:08:59.214Z,10.57
2023-03-08T05:11:30.019Z,8.00
2023-03-08T05:14:00.572Z,7.22
2023-03-08T05:16:30.457Z,7.40
2023-03-08T05:18:59.363Z,6.75
2023-03-08T05:21:33.392Z,6.05
2023-03-08T05:24:03.522Z,6.72
2023-03-08T05:26:35.971Z,5.53
2023-03-08T05:29:07.038Z,7.25
2023-03-08T05:31:38.553Z,4.82
2023-03-08T05:34:11.853Z,6.55
2023-03-08T05:36:43.977Z,4.80
2023-03-08T05:39:13.299Z,4.93
2023-03-08T05:41:58.284Z,12.90
2023-03-08T05:44:31.773Z,5.43
2023-03-08T05:47:01.413Z,5.05
2023-03-08T05:49:30.630Z,5.55
2023-03-08T05:51:59.754Z,6.50
2023-03-08T05:54:30.169Z,6.15
2023-03-08T05:57:03.573Z,6.43
2023-03-08T05:59:32.911Z,5.65
2023-03-08T06:02:04.745Z,6.15
2023-03-08T06:04:38.631Z,4.55
2023-03-08T06:07:07.525Z,4.78
2023-03-08T06:09:40.810Z,6.57
2023-03-08T06:12:14.144Z,6.68
2023-03-08T06:14:42.885Z,7.20
2023-03-08T06:17:13.143Z,6.35
2023-03-08T06:19:47.135Z,5.60
2023-03-08T06:22:17.923Z,7.07
2023-03-08T06:24:53.564Z,8.55
2023-03-08T06:27:32.031Z,5.38
2023-03-08T06:30:04.065Z,7.82
2023-03-08T06:32:36.235Z,8.27
2023-03-08T06:35:06.649Z,10.93
2023-03-08T06:37:39.082Z,6.32
2023-03-08T06:40:10.008Z,8.63
2023-03-08T06:42:41.479Z,6.43
2023-03-08T06:45:14.808Z,7.05
2023-03-08T06:47:43.638Z,7.07
2023-03-08T06:50:13.689Z,5.88
2023-03-08T06:52:45.500Z,5.97
2023-03-08T06:55:15.992Z,5.70
2023-03-08T06:57:44.849Z,5.55
2023-03-08T07:00:14.469Z,5.63
2023-03-08T07:02:43.367Z,6.53
2023-03-08T07:05:12.168Z,6.90
2023-03-08T07:07:41.039Z,6.80
2023-03-08T07:10:17.264Z,5.93
2023-03-08T07:12:49.104Z,21.55
2023-03-08T07:15:23.552Z,8.95
2023-03-08T07:17:56.378Z,5.40
2023-03-08T07:20:28.308Z,8.25
2023-03-08T07:22:57.861Z,10.25
2023-03-08T07:25:26.556Z,5.88
2023-03-08T07:27:55.459Z,7.00
2023-03-08T07:30:24.355Z,9.63
2023-03-08T07:32:55.129Z,8.10
2023-03-08T07:35:24.068Z,17.02
2023-03-08T07:37:53.453Z,11.77
2023-03-08T07:40:22.307Z,20.67
2023-03-08T07:42:51.094Z,59.88
2023-03-08T07:45:49.207Z,58.47
2023-03-08T07:48:17.904Z,12.43
2023-03-08T07:50:46.825Z,12.05
2023-03-08T07:53:15.927Z,10.82
2023-03-08T07:55:44.923Z,12.88
2023-03-08T07:58:14.336Z,10.23
2023-03-08T08:00:43.078Z,11.43
2023-03-08T08:03:11.822Z,8.10
2023-03-08T08:05:40.678Z,9.93
2023-03-08T08:08:10.918Z,11.32
2023-03-08T08:10:39.821Z,8.85
2023-03-08T08:13:08.961Z,7.43
2023-03-08T08:15:37.774Z,7.20
2023-03-08T08:18:06.536Z,7.97
2023-03-08T08:20:35.375Z,5.80
2023-03-08T08:23:07.335Z,6.93
2023-03-08T08:25:41.352Z,9.90
2023-03-08T08:28:10.078Z,7.43
2023-03-08T08:30:38.941Z,6.10
2023-03-08T08:33:07.841Z,6.40
2023-03-08T08:35:43.041Z,9.63
2023-03-08T08:38:12.551Z,13.32
2023-03-08T08:40:41.613Z,6.32
2023-03-08T08:43:10.392Z,6.38
2023-03-08T08:45:47.432Z,5.18
2023-03-08T08:48:16.699Z,5.70
2023-03-08T08:50:45.635Z,6.95
2023-03-08T08:53:14.745Z,9.85
2023-03-08T08:55:45.543Z,6.55
2023-03-08T08:58:16.518Z,9.57
2023-03-08T09:00:45.980Z,11.30
2023-03-08T09:03:14.634Z,10.82
2023-03-08T09:05:46.060Z,8.40
2023-03-08T09:08:14.786Z,11.23
2023-03-08T09:10:43.579Z,12.98
2023-03-08T09:13:13.011Z,13.13
2023-03-08T09:15:41.870Z,10.60
2023-03-08T09:18:10.710Z,12.43
2023-03-08T09:20:39.493Z,9.82
2023-03-08T09:23:09.319Z,8.20
2023-03-08T09:25:38.315Z,8.73
2023-03-08T09:28:07.018Z,7.13
2023-03-08T09:30:35.864Z,9.70
2023-03-08T09:33:04.994Z,8.10
2023-03-08T09:35:33.526Z,7.75
2023-03-08T09:38:02.846Z,7.72
2023-03-08T09:40:49.239Z,7.20
2023-03-08T09:43:31.666Z,8.32
2023-03-08T09:46:01.271Z,7.07
2023-03-08T09:48:31.962Z,8.18
2023-03-08T09:51:08.492Z,8.23
2023-03-08T09:53:44.770Z,7.38
2023-03-08T09:56:39.880Z,8.30
2023-03-08T09:59:22.231Z,7.82
2023-03-08T10:02:14.410Z,7.60
2023-03-08T10:05:11.414Z,7.82
2023-03-08T10:07:50.844Z,9.15
2023-03-08T10:10:35.071Z,8.65
2023-03-08T10:13:07.029Z,9.15
2023-03-08T10:15:46.812Z,7.57
2023-03-08T10:18:40.190Z,9.82
2023-03-08T10:21:14.411Z,9.65
2023-03-08T10:23:43.386Z,8.70
2023-03-08T10:26:14.308Z,6.88
2023-03-08T10:28:43.249Z,8.40
2023-03-08T10:31:26.304Z,8.68
2023-03-08T10:34:18.403Z,7.80
2023-03-08T10:36:49.664Z,7.72
2023-03-08T10:39:19.414Z,8.20
2023-03-08T10:41:55.598Z,8.95
2023-03-08T10:44:43.540Z,8.73
2023-03-08T10:47:31.013Z,8.50
2023-03-08T10:50:21.147Z,7.65
2023-03-08T10:52:51.779Z,8.82
2023-03-08T10:55:27.883Z,8.25
2023-03-08T10:58:00.359Z,8.27
2023-03-08T11:00:40.160Z,9.27
2023-03-08T11:03:16.004Z,9.82
2023-03-08T11:05:56.939Z,9.07
2023-03-08T11:08:51.621Z,9.43
2023-03-08T11:11:20.358Z,9.77
2023-03-08T11:13:53.426Z,8.85
2023-03-08T11:17:17.616Z,8.50
2023-03-08T11:20:14.489Z,6.75
2023-03-08T11:23:10.293Z,8.30
2023-03-08T11:26:10.457Z,7.60
2023-03-08T11:29:15.446Z,6.65
2023-03-08T11:32:06.102Z,8.52
2023-03-08T11:35:02.532Z,9.55
2023-03-08T11:37:57.977Z,8.32
2023-03-08T11:40:30.543Z,10.38
2023-03-08T11:43:22.799Z,9.45
2023-03-08T11:46:20.547Z,9.18
2023-03-08T11:48:58.874Z,9.45
2023-03-08T11:51:37.383Z,9.80
2023-03-08T11:54:14.678Z,11.02
2023-03-08T11:56:57.741Z,9.82
2023-03-08T11:59:39.958Z,9.70
2023-03-08T12:02:08.866Z,9.35
2023-03-08T12:04:48.940Z,9.57
2023-03-08T12:07:41.593Z,11.00
2023-03-08T12:10:30.158Z,9.88
2023-03-08T12:13:19.455Z,11.35
2023-03-08T12:16:11.073Z,9.77
2023-03-08T12:19:00.941Z,10.77
2023-03-08T12:22:23.342Z,9.05
2023-03-08T12:25:16.797Z,9.45
2023-03-08T12:27:49.337Z,9.68
2023-03-08T12:30:35.050Z,12.25
2023-03-08T12:33:06.347Z,9.90
2023-03-08T12:35:50.126Z,11.18
2023-03-08T12:38:18.925Z,10.70
2023-03-08T12:40:53.281Z,12.57
2023-03-08T12:43:22.185Z,12.00
2023-03-08T12:46:10.725Z,11.65
2023-03-08T12:48:45.308Z,12.15
2023-03-08T12:51:14.108Z,13.55
2023-03-08T12:53:51.759Z,11.40
2023-03-08T12:56:25.247Z,11.32
2023-03-08T12:58:55.793Z,13.85
2023-03-08T13:01:35.804Z,13.07
2023-03-08T13:04:42.905Z,13.90
2023-03-08T13:07:35.324Z,14.27
2023-03-08T13:10:20.771Z,15.95
2023-03-08T13:12:50.854Z,14.48
2023-03-08T13:15:25.213Z,14.15
2023-03-08T13:18:00.397Z,15.52
2023-03-08T13:20:42.047Z,15.50
2023-03-08T13:23:16.761Z,16.98
2023-03-08T13:26:06.727Z,15.57
2023-03-08T13:28:47.027Z,17.67
2023-03-08T13:31:23.338Z,15.30
2023-03-08T13:33:56.166Z,14.18
2023-03-08T13:36:33.370Z,12.90
2023-03-08T13:39:08.926Z,13.95
2023-03-08T13:41:44.679Z,15.23
2023-03-08T13:44:27.227Z,15.23
2023-03-08T13:46:59.325Z,15.40
2023-03-08T13:49:42.804Z,15.88
2023-03-08T13:52:22.971Z,15.85
2023-03-08T13:54:58.385Z,15.43
2023-03-08T13:57:34.246Z,16.58
2023-03-08T14:00:21.720Z,16.05
2023-03-08T14:02:52.225Z,15.52
2023-03-08T14:05:24.517Z,17.92
2023-03-08T14:08:03.952Z,16.40
2023-03-08T14:10:45.018Z,16.77
2023-03-08T14:13:43.394Z,17.15
2023-03-08T14:16:44.648Z,15.43
2023-03-08T14:19:39.251Z,14.80
2023-03-08T14:22:17.884Z,14.02
2023-03-08T14:24:57.026Z,17.27
2023-03-08T14:27:39.508Z,14.98
2023-03-08T14:30:16.208Z,14.32
2023-03-08T14:33:01.220Z,15.82
2023-03-08T14:38:01.474Z,14.07
2023-03-08T14:40:32.128Z,16.23
2023-03-08T14:43:08.188Z,14.32
2023-03-08T14:45:41.226Z,18.88
2023-03-08T14:48:24.764Z,18.65
2023-03-08T14:50:56.466Z,45.60
2023-03-08T14:53:53.705Z,60.58
2023-03-08T14:56:22.503Z,43.55
2023-03-08T14:58:52.916Z,54.08
2023-03-08T15:01:30.712Z,93.35
2023-03-08T15:04:00.260Z,92.70
2023-03-08T15:06:36.038Z,78.07
2023-03-08T15:09:09.637Z,72.25
2023-03-08T15:11:38.473Z,96.22
2023-03-08T15:14:07.224Z,81.85
2023-03-08T15:16:36.362Z,71.53
2023-03-08T15:19:05.156Z,44.05
2023-03-08T15:21:35.662Z,24.75
2023-03-08T15:24:04.737Z,19.70
2023-03-08T15:26:33.640Z,17.60
2023-03-08T15:29:05.969Z,16.05
2023-03-08T15:31:34.787Z,16.33
2023-03-08T15:34:04.535Z,15.90
2023-03-08T15:36:36.354Z,16.52
2023-03-08T15:39:05.246Z,15.68
2023-03-08T15:41:34.201Z,14.82
2023-03-08T15:44:03.823Z,13.85
2023-03-08T15:46:32.727Z,14.52
2023-03-08T15:49:01.356Z,12.88
2023-03-08T15:51:36.391Z,15.60
2023-03-08T15:54:07.073Z,15.13
2023-03-08T15:56:35.975Z,14.95
2023-03-08T15:59:04.834Z,14.50
2023-03-08T16:01:34.122Z,13.32
2023-03-08T16:04:02.966Z,13.90
2023-03-08T16:06:32.695Z,14.75
2023-03-08T16:09:01.406Z,15.15
2023-03-08T16:11:32.327Z,16.50
2023-03-08T16:14:01.910Z,14.90
2023-03-08T16:16:44.368Z,14.43
2023-03-08T16:19:15.330Z,14.07
2023-03-08T16:21:43.867Z,11.23
2023-03-08T16:24:12.838Z,12.80
2023-03-08T16:26:41.773Z,12.48
2023-03-08T16:29:10.757Z,13.13
2023-03-08T16:31:39.438Z,13.27
2023-03-08T16:34:08.422Z,13.38
2023-03-08T16:36:36.879Z,13.90
2023-03-08T16:39:07.625Z,13.77
2023-03-08T16:41:37.962Z,13.48
2023-03-08T16:44:07.735Z,13.60
2023-03-08T16:46:37.424Z,13.88
2023-03-08T16:49:06.426Z,14.00
2023-03-08T16:51:38.109Z,13.90
2023-03-08T16:54:07.295Z,14.55
2023-03-08T16:56:36.482Z,14.90
2023-03-08T16:59:05.549Z,14.77
2023-03-08T17:01:34.728Z,15.07
2023-03-08T17:04:04.053Z,15.18
2023-03-08T17:06:33.794Z,16.15
2023-03-08T17:09:03.399Z,16.13
2023-03-08T17:11:35.152Z,17.17
2023-03-08T17:14:09.773Z,16.75
2023-03-08T17:16:40.358Z,16.55
2023-03-08T17:19:10.309Z,16.40
2023-03-08T17:21:39.629Z,17.23
2023-03-08T17:24:12.146Z,16.42
2023-03-08T17:26:49.201Z,17.20
2023-03-08T17:29:18.703Z,17.95
2023-03-08T17:31:48.548Z,15.90
2023-03-08T17:34:18.463Z,15.88
2023-03-08T17:36:47.398Z,16.67
2023-03-08T17:39:16.592Z,18.35
2023-03-08T17:41:45.490Z,18.63
2023-03-08T17:44:15.222Z,18.73
2023-03-08T17:46:43.861Z,18.92
2023-03-08T17:49:13.936Z,16.20
2023-03-08T17:51:43.146Z,15.57
2023-03-08T17:54:12.586Z,15.20
2023-03-08T17:56:41.809Z,14.95
2023-03-08T17:59:15.613Z,14.10
2023-03-08T18:01:45.177Z,11.97
2023-03-08T18:04:13.985Z,12.13
2023-03-08T18:06:44.046Z,12.05
2023-03-08T18:09:17.097Z,11.65
2023-03-08T18:11:46.152Z,10.80
2023-03-08T18:14:16.410Z,11.30
2023-03-08T18:16:46.116Z,11.65
2023-03-08T18:19:17.131Z,12.27
2023-03-08T18:21:50.481Z,12.60
2023-03-08T18:24:25.218Z,10.85
2023-03-08T18:26:54.937Z,11.93
2023-03-08T18:29:23.509Z,12.57
2023-03-08T18:31:53.748Z,13.25
2023-03-08T18:34:22.508Z,13.35
2023-03-08T18:36:51.273Z,13.63
2023-03-08T18:39:20.110Z,13.23
2023-03-08T18:41:48.947Z,13.20
2023-03-08T18:44:18.345Z,13.45
2023-03-08T18:46:46.956Z,12.88
2023-03-08T18:49:16.624Z,12.65
2023-03-08T18:51:48.664Z,12.70
2023-03-08T18:54:21.284Z,12.32
2023-03-08T18:56:58.128Z,11.25
2023-03-08T18:59:28.780Z,10.40
2023-03-08T19:01:57.354Z,11.00
2023-03-08T19:04:26.826Z,11.02
2023-03-08T19:06:55.410Z,10.52
2023-03-08T19:09:24.966Z,10.13
2023-03-08T19:11:54.148Z,10.90
2023-03-08T19:14:22.831Z,10.55
2023-03-08T19:16:51.566Z,10.25
2023-03-08T19:19:20.496Z,9.95
2023-03-08T19:21:49.922Z,9.60
2023-03-08T19:24:20.332Z,9.40
2023-03-08T19:26:52.058Z,9.18
2023-03-08T19:29:24.721Z,8.25
2023-03-08T19:31:56.373Z,8.98
2023-03-08T19:34:31.973Z,9.43
2023-03-08T19:37:01.211Z,8.73
2023-03-08T19:39:32.912Z,8.73
2023-03-08T19:42:07.557Z,9.77
2023-03-08T19:44:37.651Z,9.50
2023-03-08T19:47:07.323Z,9.25
2023-03-08T19:49:38.513Z,10.85
2023-03-08T19:52:08.570Z,9.65
2023-03-08T19:54:37.314Z,8.93
2023-03-08T19:57:06.513Z,10.15
2023-03-08T19:59:37.411Z,9.13
2023-03-08T20:02:08.516Z,11.02
2023-03-08T20:04:37.314Z,8.80
2023-03-08T20:07:05.998Z,10.23
2023-03-08T20:09:34.565Z,9.00
2023-03-08T20:12:03.235Z,8.10
2023-03-08T20:14:31.852Z,8.52
2023-03-08T20:17:02.110Z,7.70
2023-03-08T20:19:32.500Z,8.35
2023-03-08T20:22:02.236Z,11.43
2023-03-08T20:24:31.259Z,11.90
2023-03-08T20:27:00.131Z,9.23
2023-03-08T20:29:28.740Z,8.73
2023-03-08T20:31:58.910Z,9.38
2023-03-08T20:34:28.387Z,10.07
2023-03-08T20:36:57.088Z,10.50
2023-03-08T20:39:25.650Z,10.73
2023-03-08T20:41:57.472Z,11.85
2023-03-08T20:44:26.029Z,14.60
2023-03-08T20:46:54.941Z,8.25
2023-03-08T20:49:23.575Z,7.53
2023-03-08T20:51:51.993Z,8.00
2023-03-08T20:54:20.555Z,8.95
2023-03-08T20:56:49.553Z,8.07
2023-03-08T20:59:20.930Z,8.43
2023-03-08T21:01:50.074Z,7.50
2023-03-08T21:04:19.197Z,8.02
2023-03-08T21:06:48.784Z,7.72
2023-03-08T21:09:17.690Z,7.90
2023-03-08T21:11:46.230Z,7.22
2023-03-08T21:14:14.789Z,7.25
2023-03-08T21:16:44.185Z,7.05
2023-03-08T21:19:12.795Z,7.90
2023-03-08T21:21:44.582Z,8.35
2023-03-08T21:24:18.457Z,6.90
2023-03-08T21:26:47.214Z,8.55
2023-03-08T21:29:18.376Z,7.95
2023-03-08T21:31:51.833Z,6.78
2023-03-08T21:34:21.526Z,6.88
2023-03-08T21:36:50.698Z,7.05
2023-03-08T21:39:20.489Z,6.90
2023-03-08T21:41:50.488Z,7.10
2023-03-08T21:44:21.285Z,7.55
2023-03-08T21:46:52.417Z,6.72
2023-03-08T21:49:31.268Z,6.43
2023-03-08T21:52:00.233Z,6.68
2023-03-08T21:54:30.908Z,6.35
2023-03-08T21:56:59.906Z,11.80
2023-03-08T21:59:30.004Z,6.38
2023-03-08T22:01:59.554Z,6.03
2023-03-08T22:04:29.719Z,7.03
2023-03-08T22:07:00.953Z,6.85
2023-03-08T22:09:29.951Z,5.90
2023-03-08T22:11:59.896Z,7.50
2023-03-08T22:14:30.431Z,7.50
2023-03-08T22:17:01.321Z,5.80
2023-03-08T22:19:30.206Z,7.30
2023-03-08T22:21:59.674Z,7.28
2023-03-08T22:24:28.389Z,6.60
2023-03-08T22:26:56.978Z,6.10
2023-03-08T22:29:25.577Z,6.60
2023-03-08T22:31:54.515Z,5.47
2023-03-08T22:34:23.495Z,6.68
2023-03-08T22:36:52.777Z,7.03
2023-03-08T22:39:21.583Z,6.32
2023-03-08T22:41:50.339Z,7.25
2023-03-08T22:44:19.143Z,7.32
2023-03-08T22:46:48.030Z,5.78
2023-03-08T22:49:17.189Z,6.68
2023-03-08T22:51:48.525Z,6.72
2023-03-08T22:54:19.340Z,5.95
2023-03-08T22:56:49.894Z,9.88
2023-03-08T22:59:19.199Z,5.70
2023-03-08T23:01:48.071Z,6.35
2023-03-08T23:04:16.790Z,6.10
2023-03-08T23:06:48.399Z,6.60
2023-03-08T23:09:17.794Z,5.85
2023-03-08T23:11:47.898Z,11.15
2023-03-08T23:14:17.118Z,10.57
2023-03-08T23:16:47.452Z,6.53
2023-03-08T23:19:20.338Z,10.07
2023-03-08T23:21:50.116Z,6.10
2023-03-08T23:24:19.008Z,5.85
2023-03-08T23:26:48.281Z,6.13
2023-03-08T23:29:17.169Z,6.47
2023-03-08T23:31:47.641Z,9.38
2023-03-08T23:34:19.138Z,6.38
2023-03-08T23:36:47.897Z,6.45
2023-03-08T23:39:16.554Z,8.30
2023-03-08T23:41:46.044Z,7.63
2023-03-08T23:44:14.839Z,9.20
2023-03-08T23:46:46.717Z,9.40
2023-03-08T23:49:17.737Z,6.10
2023-03-08T23:51:46.896Z,6.80
2023-03-08T23:54:15.640Z,6.45
2023-03-08T23:56:44.462Z,6.53
2023-03-08T23:59:19.313Z,6.57
